Time;durP1;ratioP1;P1;durP2;ratioP2;P2;SDS_P1;SDS_P2;PMS_P1;PMS_P2;Temp;Humidity;BMP_temperature;BMP_pressure;BME280_temperature;BME280_humidity;BME280_pressure;Samples;Min_cycle;Max_cycle;Signal;HPM_P1;HPM_P2
2023/11/05 00:00:14;;;;;;;2.45;0.75;;;9.10;99.90;;;;;;4967944;28;20026;-78
2023/11/05 00:02:40;;;;;;;5.43;0.90;;;9.20;99.90;;;;;;4967746;28;20490;-77
2023/11/05 00:05:06;;;;;;;4.45;0.95;;;9.30;99.90;;;;;;4968533;28;20085;-78
2023/11/05 00:07:32;;;;;;;9.65;1.50;;;9.40;99.90;;;;;;4987848;28;20117;-79
2023/11/05 00:09:57;;;;;;;9.32;0.90;;;9.40;99.90;;;;;;5013972;28;20541;-78
2023/11/05 00:12:23;;;;;;;5.60;0.80;;;9.40;99.90;;;;;;4983342;28;20050;-79
2023/11/05 00:14:48;;;;;;;3.95;0.70;;;9.50;99.90;;;;;;4969123;28;20061;-78
2023/11/05 00:17:14;;;;;;;3.33;0.90;;;9.40;99.90;;;;;;4985576;28;20022;-78
2023/11/05 00:19:40;;;;;;;5.55;1.00;;;9.50;99.90;;;;;;4984670;28;20153;-79
2023/11/05 00:22:06;;;;;;;4.82;1.05;;;9.50;99.90;;;;;;4984556;28;20026;-77
2023/11/05 00:24:32;;;;;;;3.20;0.85;;;9.50;99.90;;;;;;4982958;28;20045;-79
2023/11/05 00:26:57;;;;;;;6.28;1.30;;;9.60;99.90;;;;;;4996398;28;20031;-77
2023/11/05 00:29:23;;;;;;;3.55;0.65;;;9.60;99.90;;;;;;4984653;28;20058;-79
2023/11/05 00:31:48;;;;;;;4.43;1.00;;;9.60;99.90;;;;;;4985300;28;20026;-78
2023/11/05 00:34:14;;;;;;;3.05;0.80;;;9.60;99.90;;;;;;5015946;28;20034;-78
2023/11/05 00:36:40;;;;;;;4.65;1.10;;;9.70;99.90;;;;;;4984523;28;20038;-78
2023/11/05 00:39:06;;;;;;;4.63;0.80;;;9.70;99.90;;;;;;4984654;28;20046;-78
2023/11/05 00:41:32;;;;;;;2.50;0.52;;;9.70;99.90;;;;;;4995855;28;20030;-78
2023/11/05 00:43:57;;;;;;;6.07;1.15;;;9.70;99.90;;;;;;4968207;28;20435;-77
2023/11/05 00:46:23;;;;;;;5.43;1.00;;;9.80;99.90;;;;;;4983494;28;20030;-79
2023/11/05 00:48:49;;;;;;;5.10;0.90;;;9.80;99.90;;;;;;4983987;28;20354;-78
2023/11/05 00:51:14;;;;;;;3.13;0.60;;;9.80;99.90;;;;;;4984457;28;20027;-78
2023/11/05 00:53:40;;;;;;;2.78;0.77;;;9.80;99.90;;;;;;5014019;28;20053;-82
2023/11/05 00:56:06;;;;;;;2.85;1.27;;;9.90;99.90;;;;;;4968760;28;20896;-82
2023/11/05 00:58:31;;;;;;;6.70;1.08;;;9.80;99.90;;;;;;4999674;28;20089;-82
2023/11/05 01:00:57;;;;;;;5.90;0.68;;;9.90;99.90;;;;;;4996115;28;20491;-82
2023/11/05 01:03:23;;;;;;;7.03;0.88;;;9.80;99.90;;;;;;5011937;28;20035;-82
2023/11/05 01:05:48;;;;;;;8.60;1.30;;;9.80;99.90;;;;;;4951697;28;20117;-82
2023/11/05 01:08:14;;;;;;;7.57;1.15;;;9.80;99.90;;;;;;4987320;28;20479;-82
2023/11/05 01:10:39;;;;;;;4.40;0.93;;;9.80;99.90;;;;;;4984500;28;20174;-82
2023/11/05 01:13:05;;;;;;;7.65;1.00;;;9.80;99.90;;;;;;4986925;28;20058;-80
2023/11/05 01:15:30;;;;;;;3.95;0.70;;;9.80;99.90;;;;;;4985046;28;20406;-82
2023/11/05 01:17:57;;;;;;;5.10;0.90;;;9.90;99.90;;;;;;4999139;28;20487;-82
2023/11/05 01:20:24;;;;;;;4.88;0.98;;;9.90;99.90;;;;;;4986721;28;20032;-83
2023/11/05 01:22:50;;;;;;;8.05;1.02;;;9.90;99.90;;;;;;4968837;28;20421;-81
2023/11/05 01:25:17;;;;;;;6.25;1.10;;;9.90;99.90;;;;;;4983418;28;20022;-81
2023/11/05 01:27:43;;;;;;;1.77;0.38;;;9.80;99.90;;;;;;4995415;28;20035;-80
2023/11/05 01:30:09;;;;;;;11.40;1.67;;;9.80;99.90;;;;;;4983591;28;20061;-81
2023/11/05 01:32:35;;;;;;;6.20;1.23;;;9.80;99.90;;;;;;4996370;28;20514;-82
2023/11/05 01:35:01;;;;;;;4.35;1.10;;;9.70;99.90;;;;;;4982319;28;20026;-82
2023/11/05 01:37:26;;;;;;;3.65;0.60;;;9.70;99.90;;;;;;4968277;28;20084;-81
2023/11/05 01:39:52;;;;;;;7.13;0.93;;;9.70;99.90;;;;;;4966046;28;20068;-80
2023/11/05 01:42:17;;;;;;;8.65;0.73;;;9.60;99.90;;;;;;4984276;28;20398;-82
2023/11/05 01:44:43;;;;;;;4.72;1.48;;;9.60;99.90;;;;;;4982231;28;20026;-81
2023/11/05 01:47:09;;;;;;;2.95;0.60;;;9.60;99.90;;;;;;4979177;28;20081;-81
2023/11/05 01:49:35;;;;;;;2.92;0.43;;;9.60;99.90;;;;;;5014320;28;20038;-81
2023/11/05 01:52:01;;;;;;;9.63;0.85;;;9.60;99.90;;;;;;4966404;28;20041;-81
2023/11/05 01:54:27;;;;;;;9.07;1.58;;;9.60;99.90;;;;;;4996910;28;20035;-81
2023/11/05 01:56:52;;;;;;;4.53;0.98;;;9.50;99.90;;;;;;4967123;28;20042;-81
2023/11/05 01:59:18;;;;;;;8.10;1.10;;;9.50;99.90;;;;;;4992632;28;20065;-80
2023/11/05 02:01:47;;;;;;;3.30;0.80;;;9.50;99.90;;;;;;4994883;28;20097;-80
2023/11/05 02:04:12;;;;;;;5.20;0.98;;;9.50;99.90;;;;;;4997459;28;20105;-80
2023/11/05 02:06:38;;;;;;;9.27;1.13;;;9.50;99.90;;;;;;4985955;28;20546;-80
2023/11/05 02:09:04;;;;;;;7.25;1.10;;;9.50;99.90;;;;;;5001689;28;20060;-81
2023/11/05 02:11:29;;;;;;;7.53;0.80;;;9.50;99.90;;;;;;4983291;28;20437;-81
2023/11/05 02:13:55;;;;;;;7.03;1.05;;;9.50;99.90;;;;;;4966305;28;20057;-82
2023/11/05 02:16:21;;;;;;;6.05;0.80;;;9.50;99.90;;;;;;4983962;28;20022;-80
2023/11/05 02:18:47;;;;;;;7.60;1.23;;;9.50;99.90;;;;;;4978523;28;20066;-81
2023/11/05 02:21:17;;;;;;;3.55;0.80;;;9.50;99.90;;;;;;4980824;28;20077;-80
2023/11/05 02:23:43;;;;;;;5.00;1.23;;;9.40;99.90;;;;;;4977139;28;20113;-81
2023/11/05 02:26:09;;;;;;;4.65;0.75;;;9.40;99.90;;;;;;4967034;28;20546;-80
2023/11/05 02:28:35;;;;;;;7.43;1.15;;;9.40;99.90;;;;;;4966262;28;20442;-81
2023/11/05 02:31:00;;;;;;;5.20;0.82;;;9.40;99.90;;;;;;4967058;28;20088;-81
2023/11/05 02:33:26;;;;;;;4.55;0.95;;;9.50;99.90;;;;;;4965647;28;20394;-81
2023/11/05 02:35:52;;;;;;;6.82;0.90;;;9.50;99.90;;;;;;4995333;28;20077;-82
2023/11/05 02:38:18;;;;;;;5.68;1.00;;;9.50;99.90;;;;;;4966552;28;20072;-81
2023/11/05 02:40:43;;;;;;;6.47;0.73;;;9.50;99.90;;;;;;4966293;28;20034;-80
2023/11/05 02:43:09;;;;;;;7.70;0.90;;;9.40;99.90;;;;;;4997491;28;20038;-81
2023/11/05 02:45:34;;;;;;;3.92;0.55;;;9.40;99.90;;;;;;4996516;28;20034;-77
2023/11/05 02:48:00;;;;;;;9.65;0.93;;;9.50;99.90;;;;;;4965552;28;20030;-77
2023/11/05 02:50:25;;;;;;;4.03;0.65;;;9.50;99.90;;;;;;4982810;28;20030;-76
2023/11/05 02:52:51;;;;;;;7.63;0.80;;;9.40;99.90;;;;;;4980794;28;20040;-78
2023/11/05 02:55:17;;;;;;;6.63;1.02;;;9.40;99.90;;;;;;4986394;28;20129;-77
2023/11/05 02:57:42;;;;;;;4.63;0.60;;;9.40;99.90;;;;;;4978793;28;20483;-78
2023/11/05 03:00:10;;;;;;;6.03;0.73;;;9.40;99.90;;;;;;4980862;28;20041;-78
2023/11/05 03:02:37;;;;;;;5.35;0.98;;;9.50;99.90;;;;;;4966206;28;20052;-77
2023/11/05 03:05:04;;;;;;;10.82;1.15;;;9.50;99.90;;;;;;4965351;28;20475;-77
2023/11/05 03:07:30;;;;;;;6.20;0.70;;;9.40;99.90;;;;;;4966600;28;20050;-77
2023/11/05 03:09:55;;;;;;;5.15;0.80;;;9.40;99.90;;;;;;5013766;28;20691;-77
2023/11/05 03:12:21;;;;;;;6.65;1.60;;;9.40;99.90;;;;;;4997670;28;20041;-77
2023/11/05 03:14:46;;;;;;;4.43;0.73;;;9.40;99.90;;;;;;4995814;28;20029;-77
2023/11/05 03:17:12;;;;;;;9.15;0.93;;;9.40;99.90;;;;;;4981628;28;20037;-78
2023/11/05 03:19:38;;;;;;;8.52;0.95;;;9.40;99.90;;;;;;4981384;28;20035;-78
2023/11/05 03:22:05;;;;;;;5.63;0.60;;;9.40;99.90;;;;;;4983303;28;20030;-78
2023/11/05 03:24:31;;;;;;;7.32;0.82;;;9.40;99.90;;;;;;4981828;28;20034;-77
2023/11/05 03:26:56;;;;;;;7.97;1.00;;;9.40;99.90;;;;;;4995602;28;20037;-77
2023/11/05 03:29:22;;;;;;;6.05;0.98;;;9.40;99.90;;;;;;4993405;28;20077;-77
2023/11/05 03:31:49;;;;;;;8.63;0.88;;;9.40;99.90;;;;;;4995111;28;20479;-77
2023/11/05 03:34:15;;;;;;;2.88;0.50;;;9.50;99.90;;;;;;5011523;28;20524;-78
2023/11/05 03:36:40;;;;;;;9.35;1.08;;;9.50;99.90;;;;;;4965439;28;20052;-78
2023/11/05 03:39:06;;;;;;;8.00;1.10;;;9.40;99.90;;;;;;4967008;28;20449;-78
2023/11/05 03:41:31;;;;;;;3.80;0.70;;;9.40;99.90;;;;;;4982156;28;20434;-77
2023/11/05 03:43:57;;;;;;;2.90;0.60;;;9.40;99.90;;;;;;4978268;28;20034;-78
2023/11/05 03:46:22;;;;;;;3.40;0.98;;;9.40;99.90;;;;;;4983728;28;20177;-78
2023/11/05 03:48:48;;;;;;;7.18;0.90;;;9.40;99.90;;;;;;5004187;28;20037;-78
2023/11/05 03:51:17;;;;;;;2.97;0.60;;;9.40;99.90;;;;;;5000345;28;20605;-78
2023/11/05 03:53:42;;;;;;;5.55;1.33;;;9.40;99.90;;;;;;4965108;28;20113;-78
2023/11/05 03:56:08;;;;;;;4.68;0.80;;;9.50;99.90;;;;;;4991703;28;20685;-78
2023/11/05 03:58:34;;;;;;;4.75;0.70;;;9.50;99.90;;;;;;4950628;28;20069;-78
2023/11/05 04:01:00;;;;;;;4.45;0.85;;;9.50;99.90;;;;;;4982049;28;20053;-78
2023/11/05 04:03:25;;;;;;;6.22;1.13;;;9.50;99.90;;;;;;5013262;28;20034;-78
2023/11/05 04:05:51;;;;;;;4.07;1.05;;;9.40;99.90;;;;;;4993955;28;20042;-77
2023/11/05 04:08:16;;;;;;;2.25;0.60;;;9.50;99.90;;;;;;4996039;28;20049;-78
2023/11/05 04:10:42;;;;;;;7.05;1.08;;;9.50;99.90;;;;;;4985958;28;20031;-77
2023/11/05 04:13:07;;;;;;;3.22;0.63;;;9.40;99.90;;;;;;4966198;28;20184;-79
2023/11/05 04:15:33;;;;;;;5.95;0.90;;;9.50;99.90;;;;;;4981440;28;20065;-78
2023/11/05 04:17:58;;;;;;;5.63;0.80;;;9.40;99.90;;;;;;4965974;28;20109;-78
2023/11/05 04:20:24;;;;;;;4.20;1.10;;;9.40;99.90;;;;;;4998040;28;20138;-78
2023/11/05 04:22:49;;;;;;;10.25;1.00;;;9.50;99.90;;;;;;4984157;28;20030;-78
2023/11/05 04:25:15;;;;;;;3.25;0.90;;;9.50;99.90;;;;;;4984270;28;20035;-78
2023/11/05 04:27:41;;;;;;;6.53;1.70;;;9.40;99.90;;;;;;4984337;28;20045;-79
2023/11/05 04:30:07;;;;;;;2.90;1.00;;;9.40;99.90;;;;;;4985995;28;20471;-77
2023/11/05 04:32:32;;;;;;;2.28;0.68;;;9.50;99.90;;;;;;5000597;28;20046;-78
2023/11/05 04:34:58;;;;;;;2.15;0.50;;;9.50;99.90;;;;;;4998706;28;20589;-78
2023/11/05 04:37:23;;;;;;;3.63;0.77;;;9.50;99.90;;;;;;5004036;28;20445;-78
2023/11/05 04:39:49;;;;;;;2.90;0.82;;;9.60;99.90;;;;;;4968457;28;20556;-77
2023/11/05 04:42:14;;;;;;;3.53;0.68;;;9.50;99.90;;;;;;4985764;28;20610;-78
2023/11/05 04:44:40;;;;;;;3.28;0.50;;;9.50;99.90;;;;;;4968405;28;20530;-78
2023/11/05 04:47:05;;;;;;;7.35;0.98;;;9.50;99.90;;;;;;5012649;28;20050;-78
2023/11/05 04:49:31;;;;;;;4.65;0.30;;;9.40;99.90;;;;;;4998513;28;20038;-78
2023/11/05 04:51:57;;;;;;;2.53;1.27;;;9.50;99.90;;;;;;4981237;28;20169;-77
2023/11/05 04:54:22;;;;;;;1.70;0.50;;;9.50;99.90;;;;;;4987535;28;20034;-77
2023/11/05 04:56:48;;;;;;;1.05;0.60;;;9.50;99.90;;;;;;4985910;28;20049;-77
2023/11/05 04:59:14;;;;;;;2.25;0.50;;;9.50;99.90;;;;;;4983644;28;20149;-78
2023/11/05 05:01:39;;;;;;;1.08;0.45;;;9.50;99.90;;;;;;4968256;28;20100;-77
2023/11/05 05:04:05;;;;;;;1.75;0.43;;;9.60;99.90;;;;;;4968654;28;20038;-78
2023/11/05 05:06:30;;;;;;;1.23;0.60;;;9.50;99.90;;;;;;4985522;28;20049;-78
2023/11/05 05:08:56;;;;;;;3.90;0.70;;;9.50;99.90;;;;;;4983938;28;20053;-78
2023/11/05 05:11:21;;;;;;;1.75;0.50;;;9.50;99.90;;;;;;4983753;28;20097;-78
2023/11/05 05:13:47;;;;;;;2.08;0.45;;;9.60;99.90;;;;;;4982986;28;20040;-79
2023/11/05 05:16:17;;;;;;;2.38;0.50;;;9.60;99.90;;;;;;4967687;28;20070;-78
2023/11/05 05:18:43;;;;;;;0.98;0.30;;;9.60;99.90;;;;;;4982510;28;20049;-80
2023/11/05 05:21:08;;;;;;;1.50;0.47;;;9.60;99.90;;;;;;4967872;28;20042;-79
2023/11/05 05:23:34;;;;;;;1.20;0.60;;;9.60;99.90;;;;;;4983149;28;20061;-78
2023/11/05 05:25:59;;;;;;;1.48;0.35;;;9.60;99.90;;;;;;4967240;28;20046;-79
2023/11/05 05:28:25;;;;;;;2.13;0.50;;;9.70;99.90;;;;;;4967664;28;20038;-78
2023/11/05 05:30:51;;;;;;;1.10;0.40;;;9.70;99.90;;;;;;4981087;28;20376;-78
2023/11/05 05:33:16;;;;;;;0.85;0.40;;;9.60;99.90;;;;;;4966982;28;20049;-78
2023/11/05 05:35:42;;;;;;;2.03;0.40;;;9.60;99.90;;;;;;4986639;28;20030;-78
2023/11/05 05:38:07;;;;;;;2.25;0.38;;;9.60;99.90;;;;;;4998306;28;20039;-78
2023/11/05 05:40:33;;;;;;;1.35;0.22;;;9.70;99.90;;;;;;4985216;28;20092;-79
2023/11/05 05:42:58;;;;;;;0.63;0.40;;;9.70;99.90;;;;;;4996095;28;20031;-78
2023/11/05 05:45:24;;;;;;;2.75;0.20;;;9.70;99.90;;;;;;5012747;28;20034;-78
2023/11/05 05:47:50;;;;;;;0.32;0.20;;;9.70;99.90;;;;;;4996260;28;20494;-78
2023/11/05 05:50:15;;;;;;;2.63;0.40;;;9.70;99.90;;;;;;4983256;28;20446;-78
2023/11/05 05:52:41;;;;;;;0.32;0.22;;;9.70;99.90;;;;;;4981562;28;20054;-77
2023/11/05 05:55:10;;;;;;;0.52;0.32;;;9.70;99.90;;;;;;4949642;28;20121;-78
2023/11/05 05:57:35;;;;;;;0.50;0.30;;;9.70;99.90;;;;;;4982133;28;20118;-78
2023/11/05 06:00:05;;;;;;;0.25;0.10;;;9.70;99.90;;;;;;4996445;28;20169;-78
2023/11/05 06:02:31;;;;;;;0.70;0.17;;;9.70;99.90;;;;;;4982425;28;20148;-76
2023/11/05 06:04:56;;;;;;;1.88;0.30;;;9.70;99.90;;;;;;4993774;28;20037;-78
2023/11/05 06:07:22;;;;;;;0.22;0.10;;;9.70;99.90;;;;;;4999019;28;20037;-78
2023/11/05 06:09:48;;;;;;;0.95;0.20;;;9.70;99.90;;;;;;4965348;28;20114;-78
2023/11/05 06:12:14;;;;;;;3.00;0.28;;;9.70;99.90;;;;;;4982256;28;20132;-78
2023/11/05 06:14:39;;;;;;;1.45;0.22;;;9.70;99.90;;;;;;4982846;28;20034;-77
2023/11/05 06:17:05;;;;;;;2.28;0.30;;;9.70;99.90;;;;;;4966856;28;20038;-78
2023/11/05 06:19:30;;;;;;;0.50;0.20;;;9.70;99.90;;;;;;4965888;28;20046;-77
2023/11/05 06:21:56;;;;;;;0.38;0.20;;;9.80;99.90;;;;;;4978034;28;20088;-77
2023/11/05 06:24:21;;;;;;;0.43;0.20;;;9.70;99.90;;;;;;4981276;28;20554;-77
2023/11/05 06:26:48;;;;;;;0.22;0.20;;;9.70;99.90;;;;;;4964153;28;20057;-77
2023/11/05 06:29:14;;;;;;;0.30;0.17;;;9.70;99.90;;;;;;4997802;28;20042;-78
2023/11/05 06:31:40;;;;;;;1.33;0.28;;;9.70;99.90;;;;;;4982880;28;20030;-77
2023/11/05 06:34:05;;;;;;;0.32;0.13;;;9.70;99.90;;;;;;4983138;28;20064;-77
2023/11/05 06:36:31;;;;;;;1.17;0.22;;;9.70;99.90;;;;;;4982388;28;21376;-79
2023/11/05 06:38:57;;;;;;;3.30;0.20;;;9.70;99.90;;;;;;4979700;28;20030;-78
2023/11/05 06:41:22;;;;;;;1.00;0.30;;;9.70;99.90;;;;;;4992703;28;20161;-77
2023/11/05 06:43:48;;;;;;;0.52;0.20;;;9.70;99.90;;;;;;4991203;28;20633;-78
2023/11/05 06:46:13;;;;;;;1.08;0.30;;;9.70;99.90;;;;;;4965946;28;20038;-78
2023/11/05 06:48:39;;;;;;;0.60;0.17;;;9.70;99.90;;;;;;4984906;28;20090;-77
2023/11/05 06:51:05;;;;;;;3.03;1.10;;;9.70;99.90;;;;;;4983207;28;20034;-78
2023/11/05 06:53:31;;;;;;;0.75;0.30;;;9.70;99.90;;;;;;4965602;28;20037;-79
2023/11/05 06:55:56;;;;;;;0.35;0.13;;;9.70;99.90;;;;;;4981880;28;20495;-78
2023/11/05 06:58:22;;;;;;;1.13;0.30;;;9.70;99.90;;;;;;4966451;28;20157;-78
2023/11/05 07:00:47;;;;;;;1.88;0.40;;;9.70;99.90;;;;;;4994052;28;20470;-78
2023/11/05 07:03:13;;;;;;;1.25;0.35;;;9.70;99.90;;;;;;4997739;28;20089;-78
2023/11/05 07:05:39;;;;;;;0.35;0.20;;;9.80;99.90;;;;;;4984000;28;20459;-79
2023/11/05 07:08:05;;;;;;;2.78;1.02;;;9.80;99.90;;;;;;4994855;28;20194;-79
2023/11/05 07:10:30;;;;;;;1.40;0.20;;;9.70;99.90;;;;;;4994688;28;20104;-78
2023/11/05 07:12:56;;;;;;;1.83;0.13;;;9.80;99.90;;;;;;4979578;28;20494;-78
2023/11/05 07:15:22;;;;;;;0.43;0.20;;;9.80;99.90;;;;;;4981019;28;20069;-79
2023/11/05 07:17:48;;;;;;;1.02;0.32;;;9.80;99.90;;;;;;4977776;28;20034;-79
2023/11/05 07:20:13;;;;;;;0.20;0.17;;;9.80;99.90;;;;;;4982278;28;20053;-78
2023/11/05 07:22:40;;;;;;;3.90;0.40;;;9.80;99.90;;;;;;4965871;28;20066;-77
2023/11/05 07:25:08;;;;;;;0.75;0.10;;;9.80;99.90;;;;;;4993807;28;20038;-78
2023/11/05 07:27:34;;;;;;;1.55;0.30;;;9.80;99.90;;;;;;4967420;28;20062;-79
2023/11/05 07:29:59;;;;;;;0.77;0.38;;;9.80;99.90;;;;;;4966626;28;20606;-79
2023/11/05 07:32:25;;;;;;;2.83;0.35;;;9.80;99.90;;;;;;4967059;28;20046;-78
2023/11/05 07:34:51;;;;;;;0.90;0.20;;;9.80;99.90;;;;;;5000119;28;20121;-79
2023/11/05 07:37:17;;;;;;;2.55;0.30;;;9.80;99.90;;;;;;4980638;28;20109;-79
2023/11/05 07:39:42;;;;;;;0.85;0.20;;;9.80;99.90;;;;;;4994616;28;20435;-78
2023/11/05 07:42:08;;;;;;;2.65;0.30;;;9.80;99.90;;;;;;4967136;28;20035;-79
2023/11/05 07:44:33;;;;;;;0.10;0.10;;;9.90;99.90;;;;;;4982714;28;20104;-79
2023/11/05 07:46:59;;;;;;;1.65;0.30;;;9.80;99.90;;;;;;4966035;28;20046;-79
2023/11/05 07:49:24;;;;;;;2.80;0.40;;;9.90;99.90;;;;;;4981740;28;20034;-79
2023/11/05 07:51:50;;;;;;;0.60;0.20;;;9.90;99.90;;;;;;5001005;28;20033;-78
2023/11/05 07:54:16;;;;;;;1.15;0.30;;;9.90;99.90;;;;;;4969437;28;20072;-78
2023/11/05 07:56:42;;;;;;;1.75;0.43;;;9.90;99.90;;;;;;4988499;28;20035;-79
2023/11/05 07:59:07;;;;;;;2.35;0.32;;;9.90;99.90;;;;;;5015746;28;20390;-79
2023/11/05 08:01:33;;;;;;;0.25;0.10;;;9.90;99.90;;;;;;4982993;28;20042;-78
2023/11/05 08:03:59;;;;;;;0.45;0.30;;;9.90;99.90;;;;;;4969937;28;20035;-78
2023/11/05 08:06:25;;;;;;;0.80;0.32;;;10.00;99.90;;;;;;5000168;28;20999;-78
2023/11/05 08:08:51;;;;;;;1.17;0.40;;;10.00;99.90;;;;;;5001834;28;20033;-79
2023/11/05 08:11:17;;;;;;;1.92;0.60;;;10.00;99.90;;;;;;5016574;28;20031;-79
2023/11/05 08:13:43;;;;;;;0.30;0.30;;;10.00;99.90;;;;;;4985574;28;20026;-79
2023/11/05 08:16:10;;;;;;;1.08;0.30;;;10.00;99.90;;;;;;4986048;28;20038;-78
2023/11/05 08:18:35;;;;;;;1.33;0.32;;;10.10;99.90;;;;;;4969940;28;20030;-78
2023/11/05 08:21:02;;;;;;;2.60;0.65;;;10.10;99.90;;;;;;4986278;28;20040;-78
2023/11/05 08:23:28;;;;;;;1.13;0.45;;;10.10;99.90;;;;;;4970220;28;20038;-78
2023/11/05 08:25:53;;;;;;;0.28;0.28;;;10.10;99.90;;;;;;5015238;28;20100;-79
2023/11/05 08:28:19;;;;;;;1.17;0.30;;;10.10;99.90;;;;;;4986716;28;20035;-78
2023/11/05 08:30:44;;;;;;;1.85;0.40;;;10.10;99.90;;;;;;4985895;28;20035;-78
2023/11/05 08:33:11;;;;;;;0.30;0.30;;;10.20;99.90;;;;;;4985833;28;20043;-79
2023/11/05 08:35:37;;;;;;;1.48;0.52;;;10.10;99.90;;;;;;4985488;28;20081;-78
2023/11/05 08:38:04;;;;;;;0.45;0.45;;;10.20;99.90;;;;;;4969258;28;20837;-79
2023/11/05 08:40:30;;;;;;;0.52;0.38;;;10.20;99.90;;;;;;4983553;28;20038;-78
2023/11/05 08:42:56;;;;;;;1.17;0.52;;;10.20;99.90;;;;;;4985291;28;20546;-79
2023/11/05 08:45:21;;;;;;;0.90;0.90;;;10.20;99.90;;;;;;4984096;28;20493;-78
2023/11/05 08:47:47;;;;;;;0.10;0.10;;;10.30;99.90;;;;;;5001375;28;20532;-79
2023/11/05 08:50:12;;;;;;;2.83;0.70;;;10.30;99.90;;;;;;4969487;28;20153;-79
2023/11/05 08:52:38;;;;;;;1.25;1.13;;;10.30;99.90;;;;;;4969052;28;20057;-79
2023/11/05 08:55:06;;;;;;;0.65;0.63;;;10.40;99.90;;;;;;4968438;28;20443;-79
2023/11/05 08:57:32;;;;;;;1.63;0.80;;;10.40;99.90;;;;;;4981632;28;20035;-78
2023/11/05 08:59:57;;;;;;;1.20;0.80;;;10.50;99.90;;;;;;4966439;28;20395;-78
2023/11/05 09:02:23;;;;;;;1.15;1.05;;;10.50;99.90;;;;;;4984069;28;20491;-79
2023/11/05 09:04:50;;;;;;;1.77;0.70;;;10.50;99.90;;;;;;5012451;28;20041;-79
2023/11/05 09:07:16;;;;;;;4.03;1.02;;;10.50;99.90;;;;;;4984769;28;20030;-78
2023/11/05 09:09:41;;;;;;;0.65;0.65;;;10.50;99.90;;;;;;5012445;28;20402;-79
2023/11/05 09:12:10;;;;;;;1.00;0.95;;;10.50;99.90;;;;;;4961891;28;20041;-79
2023/11/05 09:14:36;;;;;;;1.33;0.90;;;10.50;99.90;;;;;;4997766;28;20046;-80
2023/11/05 09:17:02;;;;;;;1.10;1.00;;;10.50;99.90;;;;;;4984579;28;20034;-79
2023/11/05 09:19:28;;;;;;;3.22;0.88;;;10.50;99.90;;;;;;5015760;28;20704;-80
2023/11/05 09:21:54;;;;;;;0.90;0.77;;;10.50;99.90;;;;;;5013259;28;20026;-80
2023/11/05 09:24:20;;;;;;;1.08;0.98;;;10.50;99.90;;;;;;4997829;28;20096;-79
2023/11/05 09:26:45;;;;;;;2.00;1.30;;;10.50;99.90;;;;;;4983839;28;20165;-80
2023/11/05 09:29:11;;;;;;;1.23;1.10;;;10.60;99.90;;;;;;4967211;28;20050;-79
2023/11/05 09:31:37;;;;;;;1.58;1.10;;;10.60;99.90;;;;;;4981320;28;20108;-80
2023/11/05 09:34:04;;;;;;;1.10;1.00;;;10.60;99.90;;;;;;4978015;28;20179;-79
2023/11/05 09:36:30;;;;;;;1.25;0.60;;;10.70;99.90;;;;;;4998555;28;20030;-79
2023/11/05 09:38:56;;;;;;;1.25;0.85;;;10.70;99.90;;;;;;4998196;28;20045;-79
2023/11/05 09:41:22;;;;;;;2.15;0.90;;;10.70;99.90;;;;;;4997118;28;20026;-79
2023/11/05 09:43:48;;;;;;;1.88;0.85;;;10.70;99.90;;;;;;4980200;28;20138;-79
2023/11/05 09:46:14;;;;;;;2.97;0.90;;;10.80;99.90;;;;;;4991105;28;20030;-79
2023/11/05 09:48:42;;;;;;;2.67;0.98;;;10.90;99.90;;;;;;4943668;28;20042;-79
2023/11/05 09:51:12;;;;;;;5.30;0.73;;;10.90;99.90;;;;;;4994056;28;20045;-79
2023/11/05 09:53:37;;;;;;;2.35;0.43;;;10.90;99.90;;;;;;4971937;28;20510;-79
2023/11/05 09:56:04;;;;;;;3.30;0.90;;;11.00;99.90;;;;;;4965677;28;20351;-79
2023/11/05 09:58:29;;;;;;;0.73;0.60;;;11.10;99.90;;;;;;4968244;28;20475;-79
2023/11/05 10:00:55;;;;;;;5.95;0.65;;;11.10;99.90;;;;;;4966055;28;20038;-79
2023/11/05 10:03:21;;;;;;;2.10;0.40;;;11.20;99.90;;;;;;4997215;28;20503;-80
2023/11/05 10:05:47;;;;;;;1.10;0.70;;;11.20;99.90;;;;;;4966995;28;20087;-80
2023/11/05 10:08:13;;;;;;;3.22;0.73;;;11.30;99.90;;;;;;4967771;28;20629;-80
2023/11/05 10:10:41;;;;;;;3.70;0.90;;;11.40;99.90;;;;;;4982228;28;21186;-79
2023/11/05 10:13:06;;;;;;;3.50;0.80;;;11.40;99.90;;;;;;4980912;28;20057;-80
2023/11/05 10:15:34;;;;;;;2.83;0.75;;;11.50;99.90;;;;;;4981997;28;20116;-79
2023/11/05 10:17:59;;;;;;;1.75;0.60;;;11.40;99.90;;;;;;4980726;28;20034;-80
2023/11/05 10:20:25;;;;;;;1.42;0.50;;;11.50;99.90;;;;;;5012071;28;20027;-79
2023/11/05 10:23:03;;;;;;;1.30;0.40;;;11.50;99.90;;;;;;4982079;28;20026;-78
2023/11/05 10:25:28;;;;;;;1.13;0.82;;;11.40;99.90;;;;;;4964574;28;20097;-78
2023/11/05 10:27:54;;;;;;;2.15;0.60;;;11.40;99.90;;;;;;4981746;28;20030;-78
2023/11/05 10:30:20;;;;;;;3.03;0.70;;;11.40;99.90;;;;;;4952555;28;20118;-77
2023/11/05 10:32:51;;;;;;;2.30;1.00;;;11.40;99.90;;;;;;4982017;28;20049;-77
2023/11/05 10:35:20;;;;;;;3.15;0.60;;;11.30;99.90;;;;;;4997640;28;20038;-77
2023/11/05 10:37:47;;;;;;;5.10;0.45;;;11.20;99.90;;;;;;4997735;28;20041;-77
2023/11/05 10:40:13;;;;;;;0.95;0.35;;;11.10;99.90;;;;;;4998469;28;20045;-77
2023/11/05 10:42:39;;;;;;;2.13;0.50;;;11.10;99.90;;;;;;4992316;28;20027;-77
2023/11/05 10:45:06;;;;;;;4.13;0.63;;;11.10;99.90;;;;;;4993681;28;20401;-77
2023/11/05 10:47:31;;;;;;;0.40;0.40;;;11.20;99.90;;;;;;4982072;28;20554;-77
2023/11/05 10:49:58;;;;;;;0.10;0.10;;;11.20;99.90;;;;;;4995660;28;20084;-77
2023/11/05 10:52:26;;;;;;;1.65;0.40;;;11.20;99.90;;;;;;4999444;28;20140;-77
2023/11/05 10:55:05;;;;;;;0.22;0.20;;;11.20;99.90;;;;;;4992857;28;20518;-77
2023/11/05 10:57:57;;;;;;;0.82;0.40;;;11.30;99.90;;;;;;4967075;28;20092;-77
2023/11/05 11:00:23;;;;;;;3.08;0.65;;;11.30;99.90;;;;;;4978766;28;20375;-77
2023/11/05 11:02:48;;;;;;;1.63;0.40;;;11.40;99.90;;;;;;4983229;28;20054;-78
2023/11/05 11:05:15;;;;;;;0.80;0.50;;;11.30;99.90;;;;;;4996231;28;20065;-78
2023/11/05 11:07:40;;;;;;;2.03;0.30;;;11.40;99.90;;;;;;4996340;28;20034;-77
2023/11/05 11:10:09;;;;;;;0.77;0.28;;;11.50;99.90;;;;;;4983964;28;20491;-79
2023/11/05 11:12:36;;;;;;;2.83;0.75;;;11.50;99.90;;;;;;4968817;28;20536;-79
2023/11/05 11:15:09;;;;;;;3.30;0.60;;;11.40;99.90;;;;;;4973947;28;20230;-79
2023/11/05 11:17:38;;;;;;;1.33;0.40;;;11.40;99.90;;;;;;4994810;28;20058;-79
2023/11/05 11:20:10;;;;;;;3.67;0.85;;;11.40;99.90;;;;;;4969486;28;20038;-79
2023/11/05 11:22:45;;;;;;;1.92;0.65;;;11.50;99.90;;;;;;4997015;28;20038;-79
2023/11/05 11:25:17;;;;;;;1.35;0.50;;;11.50;99.90;;;;;;4984170;28;20064;-79
2023/11/05 11:27:43;;;;;;;1.50;0.80;;;11.60;99.90;;;;;;4983844;28;20488;-80
2023/11/05 11:30:10;;;;;;;1.00;0.73;;;11.50;99.90;;;;;;4984661;28;20046;-79
2023/11/05 11:32:38;;;;;;;0.95;0.75;;;11.60;99.90;;;;;;4972024;28;20076;-79
2023/11/05 11:35:05;;;;;;;1.35;0.60;;;11.60;99.90;;;;;;4986131;28;20038;-79
2023/11/05 11:37:30;;;;;;;1.15;0.50;;;11.50;99.90;;;;;;4999848;28;20034;-79
2023/11/05 11:39:58;;;;;;;2.55;0.85;;;11.50;99.90;;;;;;4988626;28;20041;-80
2023/11/05 11:42:24;;;;;;;7.00;1.10;;;11.40;99.90;;;;;;4988666;28;20037;-79
2023/11/05 11:44:50;;;;;;;3.10;0.95;;;11.50;99.90;;;;;;4989502;28;20049;-78
2023/11/05 11:47:15;;;;;;;0.93;0.60;;;11.40;99.90;;;;;;5001479;28;20058;-78
2023/11/05 11:49:44;;;;;;;1.25;0.57;;;11.40;99.90;;;;;;4993472;28;20034;-79
2023/11/05 11:52:10;;;;;;;0.20;0.20;;;11.40;99.90;;;;;;4988940;28;20092;-78
2023/11/05 11:54:35;;;;;;;1.60;0.88;;;11.30;99.90;;;;;;4988498;28;20038;-78
2023/11/05 11:57:01;;;;;;;1.02;0.17;;;11.30;99.90;;;;;;4641458;28;10000081;-78
2023/11/05 11:59:26;;;;;;;1.13;0.60;;;11.30;99.90;;;;;;4986356;28;20064;-78
2023/11/05 12:01:52;;;;;;;3.83;0.70;;;11.20;99.90;;;;;;4984154;28;20136;-78
2023/11/05 12:04:17;;;;;;;1.25;0.80;;;11.20;99.90;;;;;;4996960;28;20442;-78
2023/11/05 12:06:45;;;;;;;4.13;0.98;;;11.10;99.90;;;;;;4982978;28;20042;-78
2023/11/05 12:09:23;;;;;;;3.22;0.43;;;11.10;99.90;;;;;;4983744;28;20047;-78
2023/11/05 12:11:50;;;;;;;9.38;1.05;;;11.10;99.90;;;;;;4996461;28;20034;-78
2023/11/05 12:14:22;;;;;;;2.45;0.55;;;11.00;99.90;;;;;;4988400;28;20084;-81
2023/11/05 12:16:47;;;;;;;0.75;0.60;;;10.90;99.90;;;;;;4985929;28;20461;-77
2023/11/05 12:19:14;;;;;;;1.27;0.75;;;10.90;99.90;;;;;;4999747;28;20038;-77
2023/11/05 12:21:42;;;;;;;0.52;0.38;;;10.90;99.90;;;;;;4968574;28;20058;-78
2023/11/05 12:24:09;;;;;;;0.63;0.40;;;10.80;99.90;;;;;;4967792;28;20058;-77
2023/11/05 12:26:39;;;;;;;2.85;0.70;;;10.80;99.90;;;;;;4983040;28;20031;-78
2023/11/05 12:29:09;;;;;;;0.63;0.52;;;10.70;99.90;;;;;;4983339;28;20054;-78
2023/11/05 12:31:35;;;;;;;1.55;0.60;;;10.80;99.90;;;;;;4968436;28;20026;-78
2023/11/05 12:34:01;;;;;;;1.23;0.80;;;10.90;99.90;;;;;;4967810;28;20054;-77
2023/11/05 12:36:26;;;;;;;4.53;0.63;;;10.90;99.90;;;;;;4994129;28;20140;-77
2023/11/05 12:38:52;;;;;;;2.75;1.20;;;10.90;99.90;;;;;;4981455;28;20058;-78
2023/11/05 12:41:19;;;;;;;4.63;1.10;;;10.80;99.90;;;;;;4981603;28;20487;-78
2023/11/05 12:43:44;;;;;;;1.80;1.10;;;10.80;99.90;;;;;;4990190;28;20061;-77
2023/11/05 12:46:10;;;;;;;2.55;1.88;;;10.90;99.90;;;;;;4984062;28;20034;-77